createdAt,value
2016-09-30T00:00:16.269Z,99.99
2016-09-30T00:01:16.276Z,99.99
2016-09-30T00:02:15.600Z,99.99
2016-09-30T00:03:15.828Z,99.99
2016-09-30T00:04:16.233Z,99.99
2016-09-30T00:05:16.219Z,99.99
2016-09-30T00:06:15.776Z,99.99
2016-09-30T00:07:16.163Z,99.99
2016-09-30T00:08:16.176Z,99.99
2016-09-30T00:09:16.009Z,99.99
2016-09-30T00:10:15.478Z,99.99
2016-09-30T00:11:16.127Z,99.99
2016-09-30T00:12:16.113Z,99.99
2016-09-30T00:13:15.665Z,99.99
2016-09-30T00:14:15.948Z,99.99
2016-09-30T00:15:15.640Z,99.99
2016-09-30T00:16:16.059Z,99.99
2016-09-30T00:17:16.031Z,99.99
2016-09-30T00:18:15.431Z,99.99
2016-09-30T00:19:15.847Z,99.99
2016-09-30T00:20:15.965Z,99.99
2016-09-30T00:21:15.966Z,99.99
2016-09-30T00:22:15.529Z,99.99
2016-09-30T00:23:15.916Z,99.99
2016-09-30T00:24:15.917Z,99.99
2016-09-30T00:25:15.891Z,99.99
2016-09-30T00:26:15.143Z,99.99
2016-09-30T00:27:15.857Z,99.99
2016-09-30T00:28:15.193Z,99.99
2016-09-30T00:29:15.826Z,99.99
2016-09-30T00:30:15.428Z,99.99
2016-09-30T00:31:15.068Z,99.99
2016-09-30T00:32:15.802Z,99.99
2016-09-30T00:33:15.119Z,99.99
2016-09-30T00:34:15.024Z,99.99
2016-09-30T00:35:15.750Z,99.99
2016-09-30T00:36:15.754Z,99.99
2016-09-30T00:37:15.054Z,99.99
2016-09-30T00:38:15.365Z,99.99
2016-09-30T00:39:15.686Z,99.99
2016-09-30T00:40:15.642Z,99.99
2016-09-30T00:41:15.665Z,99.99
2016-09-30T00:42:15.632Z,99.99
2016-09-30T00:43:14.957Z,99.99
2016-09-30T00:44:15.195Z,99.99
2016-09-30T00:45:15.174Z,99.99
2016-09-30T00:46:15.585Z,99.99
2016-09-30T00:47:15.540Z,99.99
2016-09-30T00:48:15.129Z,99.99
2016-09-30T00:49:15.536Z,99.99
2016-09-30T00:50:15.507Z,99.99
2016-09-30T00:51:14.856Z,99.99
2016-09-30T00:52:15.535Z,99.99
2016-09-30T00:53:15.457Z,99.99
2016-09-30T00:54:15.468Z,99.99
2016-09-30T00:55:15.424Z,99.99
2016-09-30T00:56:15.420Z,99.99
2016-09-30T00:57:14.998Z,99.99
2016-09-30T00:58:14.741Z,99.99
2016-09-30T00:59:14.715Z,99.99
2016-09-30T01:00:15.374Z,99.99
2016-09-30T01:01:14.930Z,99.99
2016-09-30T01:02:15.343Z,99.99
2016-09-30T01:03:14.658Z,99.99
2016-09-30T01:04:15.317Z,99.99
2016-09-30T01:05:14.866Z,99.99
2016-09-30T01:06:15.257Z,99.99
2016-09-30T01:07:15.261Z,99.99
2016-09-30T01:08:15.275Z,99.99
2016-09-30T01:09:15.213Z,99.99
2016-09-30T01:10:15.214Z,99.99
2016-09-30T01:11:15.184Z,99.99
2016-09-30T01:12:14.521Z,99.99
2016-09-30T01:13:15.165Z,99.99
2016-09-30T01:14:14.494Z,99.99
2016-09-30T01:15:15.107Z,99.99
2016-09-30T01:16:15.103Z,99.99
2016-09-30T01:17:15.081Z,99.99
2016-09-30T01:18:14.667Z,99.99
2016-09-30T01:19:15.048Z,99.99
2016-09-30T01:20:15.048Z,99.99
2016-09-30T01:21:15.023Z,99.99
2016-09-30T01:22:15.021Z,99.99
2016-09-30T01:23:14.335Z,99.99
2016-09-30T01:24:14.977Z,99.99
2016-09-30T01:25:14.964Z,99.99
2016-09-30T01:26:14.956Z,99.99
2016-09-30T01:27:14.517Z,99.99
2016-09-30T01:28:14.508Z,99.99
2016-09-30T01:29:14.905Z,99.99
2016-09-30T01:30:14.875Z,99.99
2016-09-30T01:31:14.869Z,99.99
2016-09-30T01:32:14.892Z,99.99
2016-09-30T01:33:14.844Z,99.99
2016-09-30T01:34:14.877Z,99.99
2016-09-30T01:35:14.156Z,99.99
2016-09-30T01:36:14.063Z,99.99
2016-09-30T01:37:14.782Z,99.99
2016-09-30T01:38:14.782Z,99.99
2016-09-30T01:39:14.737Z,99.99
2016-09-30T01:40:14.323Z,99.99
2016-09-30T01:41:14.062Z,99.99
2016-09-30T01:42:14.686Z,99.99
2016-09-30T01:43:14.534Z,99.99
2016-09-30T01:44:14.654Z,99.99
2016-09-30T01:45:14.505Z,99.99
2016-09-30T01:46:14.641Z,99.99
2016-09-30T01:47:14.482Z,99.99
2016-09-30T01:48:14.616Z,99.99
2016-09-30T01:49:14.177Z,99.99
2016-09-30T01:50:14.456Z,99.99
2016-09-30T01:51:13.823Z,99.99
2016-09-30T01:52:14.545Z,99.99
2016-09-30T01:53:14.526Z,99.99
2016-09-30T01:54:13.863Z,99.99
2016-09-30T01:55:13.848Z,99.99
2016-09-30T01:56:14.484Z,99.99
2016-09-30T01:57:14.463Z,99.99
2016-09-30T01:58:14.046Z,99.99
2016-09-30T01:59:14.443Z,99.99
2016-09-30T02:00:13.694Z,99.99
2016-09-30T02:01:14.403Z,99.99
2016-09-30T02:02:13.742Z,99.99
2016-09-30T02:03:13.729Z,99.99
2016-09-30T02:04:13.707Z,99.99
2016-09-30T02:05:14.207Z,99.99
2016-09-30T02:06:14.312Z,99.99
2016-09-30T02:07:14.181Z,99.99
2016-09-30T02:08:13.887Z,99.99
2016-09-30T02:09:14.146Z,99.99
2016-09-30T02:10:14.264Z,99.99
2016-09-30T02:11:14.236Z,99.99
2016-09-30T02:12:14.244Z,99.99
2016-09-30T02:13:14.219Z,99.99
2016-09-30T02:14:13.548Z,99.99
2016-09-30T02:15:13.595Z,99.99
2016-09-30T02:16:14.186Z,99.99
2016-09-30T02:17:14.145Z,99.99
2016-09-30T02:18:14.161Z,99.99
2016-09-30T02:19:14.143Z,99.99
2016-09-30T02:20:13.703Z,99.99
2016-09-30T02:21:14.116Z,99.99
2016-09-30T02:22:13.345Z,99.99
2016-09-30T02:23:13.937Z,99.99
2016-09-30T02:24:13.635Z,99.99
2016-09-30T02:25:13.458Z,99.99
2016-09-30T02:26:13.281Z,99.99
2016-09-30T02:27:13.377Z,99.99
2016-09-30T02:28:13.583Z,99.99
2016-09-30T02:29:13.963Z,99.99
2016-09-30T02:30:13.951Z,99.99
2016-09-30T02:31:13.933Z,99.99
2016-09-30T02:32:13.781Z,99.99
2016-09-30T02:33:13.302Z,99.99
2016-09-30T02:34:13.165Z,99.99
2016-09-30T02:35:13.476Z,99.99
2016-09-30T02:36:13.458Z,99.99
2016-09-30T02:37:13.441Z,99.99
2016-09-30T02:38:13.414Z,99.99
2016-09-30T02:39:13.823Z,99.99
2016-09-30T02:40:13.823Z,99.99
2016-09-30T02:41:13.402Z,99.99
2016-09-30T02:42:13.764Z,99.99
2016-09-30T02:43:13.125Z,99.99
2016-09-30T02:44:13.596Z,99.99
2016-09-30T02:45:13.367Z,99.99
2016-09-30T02:46:13.701Z,99.99
2016-09-30T02:47:13.684Z,99.99
2016-09-30T02:48:13.683Z,99.99
2016-09-30T02:49:13.255Z,99.99
2016-09-30T02:50:12.998Z,99.99
2016-09-30T02:51:13.652Z,99.99
2016-09-30T02:52:13.600Z,99.99
2016-09-30T02:53:13.617Z,99.99
2016-09-30T02:54:13.166Z,99.99
2016-09-30T02:55:13.734Z,99.99
2016-09-30T02:56:13.136Z,99.99
2016-09-30T02:57:13.560Z,99.99
2016-09-30T02:58:12.860Z,99.99
2016-09-30T02:59:12.863Z,99.99
2016-09-30T03:00:13.486Z,99.99
2016-09-30T03:01:13.076Z,99.99
2016-09-30T03:02:13.097Z,99.99
2016-09-30T03:03:13.294Z,99.99
2016-09-30T03:04:12.696Z,99.99
2016-09-30T03:05:13.410Z,99.99
2016-09-30T03:06:13.412Z,99.99
2016-09-30T03:07:13.396Z,99.99
2016-09-30T03:08:12.706Z,99.99
2016-09-30T03:09:12.694Z,99.99
2016-09-30T03:10:12.916Z,99.99
2016-09-30T03:11:13.315Z,99.99
2016-09-30T03:12:12.643Z,99.99
2016-09-30T03:13:13.296Z,99.99
2016-09-30T03:14:13.263Z,99.99
2016-09-30T03:15:13.343Z,99.99
2016-09-30T03:16:13.250Z,99.99
2016-09-30T03:17:12.809Z,99.99
2016-09-30T03:18:13.220Z,99.99
2016-09-30T03:19:13.194Z,99.99
2016-09-30T03:20:13.036Z,99.99
2016-09-30T03:21:13.012Z,99.99
2016-09-30T03:22:13.126Z,99.99
2016-09-30T03:23:12.396Z,99.99
2016-09-30T03:24:13.109Z,99.99
2016-09-30T03:25:12.679Z,99.99
2016-09-30T03:26:13.085Z,99.99
2016-09-30T03:27:13.085Z,99.99
2016-09-30T03:28:12.320Z,99.99
2016-09-30T03:29:13.127Z,99.99
2016-09-30T03:30:12.614Z,99.99
2016-09-30T03:31:12.989Z,99.99
2016-09-30T03:32:12.584Z,99.99
2016-09-30T03:33:12.235Z,99.99
2016-09-30T03:34:12.543Z,99.99
2016-09-30T03:35:13.023Z,99.99
2016-09-30T03:36:12.796Z,99.99
2016-09-30T03:37:12.905Z,99.99
2016-09-30T03:38:12.886Z,99.99
2016-09-30T03:39:12.899Z,99.99
2016-09-30T03:40:12.853Z,99.99
2016-09-30T03:41:12.855Z,99.99
2016-09-30T03:42:12.829Z,99.99
2016-09-30T03:43:12.080Z,99.99
2016-09-30T03:44:12.136Z,99.99
2016-09-30T03:45:12.783Z,99.99
2016-09-30T03:46:12.766Z,99.99
2016-09-30T03:47:12.746Z,99.99
2016-09-30T03:48:12.079Z,99.99
2016-09-30T03:49:12.073Z,99.99
2016-09-30T03:50:12.049Z,99.99
2016-09-30T03:51:12.691Z,99.99
2016-09-30T03:52:12.660Z,99.99
2016-09-30T03:53:12.507Z,99.99
2016-09-30T03:54:11.988Z,99.99
2016-09-30T03:55:12.646Z,99.99
2016-09-30T03:56:12.619Z,99.99
2016-09-30T03:57:12.446Z,99.99
2016-09-30T03:58:11.934Z,99.99
2016-09-30T03:59:11.831Z,99.99
2016-09-30T04:00:11.887Z,99.99
2016-09-30T04:01:12.119Z,99.99
2016-09-30T04:02:11.860Z,99.99
2016-09-30T04:03:12.096Z,99.99
2016-09-30T04:04:12.471Z,99.99
2016-09-30T04:05:12.448Z,99.99
2016-09-30T04:06:12.448Z,99.99
2016-09-30T04:07:12.025Z,99.99
2016-09-30T04:08:11.764Z,99.99
2016-09-30T04:09:12.417Z,99.99
2016-09-30T04:10:11.973Z,99.99
2016-09-30T04:11:12.369Z,99.99
2016-09-30T04:12:11.955Z,99.99
2016-09-30T04:13:11.689Z,99.99
2016-09-30T04:14:12.324Z,99.99
2016-09-30T04:15:11.655Z,99.99
2016-09-30T04:16:11.892Z,99.99
2016-09-30T04:17:12.286Z,99.99
2016-09-30T04:18:12.250Z,99.99
2016-09-30T04:19:12.259Z,99.99
2016-09-30T04:20:11.497Z,99.99
2016-09-30T04:21:11.487Z,99.99
2016-09-30T04:22:11.541Z,99.99
2016-09-30T04:23:12.192Z,99.99
2016-09-30T04:24:12.166Z,99.99
2016-09-30T04:25:12.142Z,99.99
2016-09-30T04:26:12.116Z,99.99
2016-09-30T04:27:12.132Z,99.99
2016-09-30T04:28:11.963Z,99.99
2016-09-30T04:29:11.673Z,99.99
2016-09-30T04:30:12.073Z,99.99
2016-09-30T04:31:11.917Z,99.99
2016-09-30T04:32:12.022Z,99.99
2016-09-30T04:33:12.040Z,99.99
2016-09-30T04:34:12.022Z,99.99
2016-09-30T04:35:11.980Z,99.99
2016-09-30T04:36:11.974Z,99.99
2016-09-30T04:37:11.955Z,99.99
2016-09-30T04:38:11.972Z,99.99
2016-09-30T04:39:12.128Z,99.99
2016-09-30T04:40:11.333Z,99.99
2016-09-30T04:41:11.915Z,99.99
2016-09-30T04:42:11.900Z,99.99
2016-09-30T04:43:11.883Z,99.99
2016-09-30T04:44:11.844Z,99.99
2016-09-30T04:45:11.846Z,99.99
2016-09-30T04:46:11.084Z,99.99
2016-09-30T04:47:11.665Z,99.99
2016-09-30T04:48:11.802Z,99.99
2016-09-30T04:49:11.770Z,99.99
2016-09-30T04:50:11.766Z,99.99
2016-09-30T04:51:11.085Z,99.99
2016-09-30T04:52:11.090Z,99.99
2016-09-30T04:53:11.724Z,99.99
2016-09-30T04:54:11.683Z,99.99
2016-09-30T04:55:11.655Z,99.99
2016-09-30T04:56:11.016Z,99.99
2016-09-30T04:57:11.233Z,99.99
2016-09-30T04:58:11.646Z,99.99
2016-09-30T04:59:11.603Z,99.99
2016-09-30T05:00:10.976Z,99.99
2016-09-30T05:01:10.934Z,99.99
2016-09-30T05:02:10.957Z,99.99
2016-09-30T05:03:11.537Z,99.99
2016-09-30T05:04:10.885Z,99.99
2016-09-30T05:05:11.396Z,99.99
2016-09-30T05:06:11.487Z,99.99
2016-09-30T05:07:11.498Z,99.99
2016-09-30T05:08:11.484Z,99.99
2016-09-30T05:09:11.450Z,99.99
2016-09-30T05:10:11.025Z,99.99
2016-09-30T05:11:11.411Z,99.99
2016-09-30T05:12:11.409Z,99.99
2016-09-30T05:13:10.651Z,99.99
2016-09-30T05:14:11.235Z,99.99
2016-09-30T05:15:10.945Z,99.99
2016-09-30T05:16:11.326Z,99.99
2016-09-30T05:17:11.196Z,99.99
2016-09-30T05:18:11.314Z,99.99
2016-09-30T05:19:11.166Z,99.99
2016-09-30T05:20:10.635Z,99.99
2016-09-30T05:21:11.258Z,99.99
2016-09-30T05:22:10.589Z,99.99
2016-09-30T05:23:11.226Z,99.99
2016-09-30T05:24:10.558Z,99.99
2016-09-30T05:25:10.557Z,99.99
2016-09-30T05:26:10.530Z,99.99
2016-09-30T05:27:10.433Z,99.99
2016-09-30T05:28:10.503Z,99.99
2016-09-30T05:29:11.132Z,99.99
2016-09-30T05:30:10.711Z,99.99
2016-09-30T05:31:10.366Z,99.99
2016-09-30T05:32:11.090Z,99.99
2016-09-30T05:33:11.067Z,99.99
2016-09-30T05:34:11.067Z,99.99
2016-09-30T05:35:10.307Z,99.99
2016-09-30T05:36:10.363Z,99.99
2016-09-30T05:37:11.024Z,99.99
2016-09-30T05:38:10.995Z,99.99
2016-09-30T05:39:10.321Z,99.99
2016-09-30T05:40:10.301Z,99.99
2016-09-30T05:41:10.808Z,99.99
2016-09-30T05:42:10.205Z,99.99
2016-09-30T05:43:10.915Z,99.99
2016-09-30T05:44:10.915Z,99.99
2016-09-30T05:45:10.875Z,99.99
2016-09-30T05:46:10.865Z,99.99
2016-09-30T05:47:10.848Z,99.99
2016-09-30T05:48:10.843Z,99.99
2016-09-30T05:49:10.177Z,99.99
2016-09-30T05:50:10.397Z,99.99
2016-09-30T05:51:10.137Z,99.99
2016-09-30T05:52:10.114Z,99.99
2016-09-30T05:53:10.771Z,99.99
2016-09-30T05:54:10.876Z,99.99
2016-09-30T05:55:10.719Z,99.99
2016-09-30T05:56:10.053Z,99.99
2016-09-30T05:57:10.675Z,99.99
2016-09-30T05:58:10.276Z,99.99
2016-09-30T05:59:10.667Z,99.99
2016-09-30T06:00:10.651Z,99.99
2016-09-30T06:01:09.988Z,99.99
2016-09-30T06:02:10.615Z,99.99
2016-09-30T06:03:10.614Z,99.99
2016-09-30T06:04:10.588Z,99.99
2016-09-30T06:05:10.565Z,99.99
2016-09-30T06:06:10.546Z,99.99
2016-09-30T06:07:09.887Z,99.99
2016-09-30T06:08:10.835Z,99.99
2016-09-30T06:09:10.091Z,99.99
2016-09-30T06:10:10.542Z,99.99
2016-09-30T06:11:09.814Z,99.99
2016-09-30T06:12:10.306Z,99.99
2016-09-30T06:13:09.702Z,99.99
2016-09-30T06:14:10.449Z,99.99
2016-09-30T06:15:09.755Z,99.99
2016-09-30T06:16:10.408Z,99.99
2016-09-30T06:17:10.384Z,99.99
2016-09-30T06:18:10.379Z,99.99
2016-09-30T06:19:09.931Z,99.99
2016-09-30T06:20:09.675Z,99.99
2016-09-30T06:21:10.322Z,99.99
2016-09-30T06:22:09.568Z,99.99
2016-09-30T06:23:10.289Z,99.99
2016-09-30T06:24:09.858Z,99.99
2016-09-30T06:25:09.839Z,99.99
2016-09-30T06:26:10.246Z,99.99
2016-09-30T06:27:10.225Z,99.99
2016-09-30T06:28:10.210Z,99.99
2016-09-30T06:29:10.209Z,99.99
2016-09-30T06:30:10.178Z,99.99
2016-09-30T06:31:10.176Z,99.99
2016-09-30T06:32:09.494Z,99.99
2016-09-30T06:33:10.289Z,99.99
2016-09-30T06:34:09.377Z,99.99
2016-09-30T06:35:10.097Z,99.99
2016-09-30T06:36:10.075Z,99.99
2016-09-30T06:37:10.066Z,99.99
2016-09-30T06:38:10.056Z,99.99
2016-09-30T06:39:10.036Z,99.99
2016-09-30T06:40:10.015Z,99.99
2016-09-30T06:41:10.006Z,99.99
2016-09-30T06:42:09.999Z,99.99
2016-09-30T06:43:09.975Z,99.99
2016-09-30T06:44:09.956Z,99.99
2016-09-30T06:45:09.938Z,99.99
2016-09-30T06:46:09.925Z,99.99
2016-09-30T06:47:09.498Z,99.99
2016-09-30T06:48:09.897Z,99.99
2016-09-30T06:49:09.876Z,99.99
2016-09-30T06:50:09.450Z,99.99
2016-09-30T06:51:09.130Z,99.99
2016-09-30T06:52:09.824Z,99.99
2016-09-30T06:53:09.820Z,99.99
2016-09-30T06:54:09.071Z,99.99
2016-09-30T06:55:09.783Z,99.99
2016-09-30T06:56:09.764Z,99.99
2016-09-30T06:57:09.097Z,99.99
2016-09-30T06:58:09.087Z,99.99
2016-09-30T06:59:09.717Z,99.99
2016-09-30T07:00:09.055Z,99.99
2016-09-30T07:01:09.276Z,99.99
2016-09-30T07:02:09.715Z,99.99
2016-09-30T07:03:09.662Z,99.99
2016-09-30T07:04:09.659Z,99.99
2016-09-30T07:05:09.645Z,99.99
2016-09-30T07:06:09.209Z,99.99
2016-09-30T07:07:08.964Z,99.99
2016-09-30T07:08:09.164Z,99.99
2016-09-30T07:09:08.931Z,99.99
2016-09-30T07:10:09.564Z,99.99
2016-09-30T07:11:09.533Z,99.99
2016-09-30T07:12:09.526Z,99.99
2016-09-30T07:13:09.492Z,99.99
2016-09-30T07:14:09.073Z,99.99
2016-09-30T07:15:09.498Z,99.99
2016-09-30T07:16:09.474Z,99.99
2016-09-30T07:17:08.705Z,99.99
2016-09-30T07:18:09.445Z,99.99
2016-09-30T07:19:09.402Z,99.99
2016-09-30T07:20:08.756Z,99.99
2016-09-30T07:21:09.384Z,99.99
2016-09-30T07:22:08.706Z,99.99
2016-09-30T07:23:08.628Z,99.99
2016-09-30T07:24:08.924Z,99.99
2016-09-30T07:25:08.672Z,99.99
2016-09-30T07:26:09.304Z,99.99
2016-09-30T07:27:08.551Z,99.99
2016-09-30T07:28:09.280Z,99.99
2016-09-30T07:29:09.264Z,99.99
2016-09-30T07:30:09.245Z,99.99
2016-09-30T07:31:08.572Z,99.99
2016-09-30T07:32:09.207Z,99.99
2016-09-30T07:33:09.184Z,99.99
2016-09-30T07:34:08.773Z,99.99
2016-09-30T07:35:08.524Z,99.99
2016-09-30T07:36:09.129Z,99.99
2016-09-30T07:37:08.486Z,99.99
2016-09-30T07:38:09.120Z,99.99
2016-09-30T07:39:09.109Z,99.99
2016-09-30T07:40:08.438Z,99.99
2016-09-30T07:41:09.068Z,99.99
2016-09-30T07:42:09.086Z,99.99
2016-09-30T07:43:09.036Z,99.99
2016-09-30T07:44:08.384Z,99.99
2016-09-30T07:45:08.367Z,99.99
2016-09-30T07:46:08.880Z,99.99
2016-09-30T07:47:08.997Z,99.99
2016-09-30T07:48:08.961Z,99.99
2016-09-30T07:49:08.850Z,99.99
2016-09-30T07:50:08.297Z,99.99
2016-09-30T07:51:09.044Z,99.99
2016-09-30T07:52:08.846Z,99.99
2016-09-30T07:53:08.903Z,99.99
2016-09-30T07:54:08.837Z,99.99
2016-09-30T07:55:08.867Z,99.99
2016-09-30T07:56:08.197Z,99.99
2016-09-30T07:57:08.177Z,99.99
2016-09-30T07:58:08.401Z,99.99
2016-09-30T07:59:08.144Z,99.99
2016-09-30T08:00:08.143Z,99.99
2016-09-30T08:01:08.108Z,99.99
2016-09-30T08:02:08.099Z,99.99
2016-09-30T08:03:08.328Z,99.99
2016-09-30T08:04:08.076Z,99.99
2016-09-30T08:05:08.065Z,99.99
2016-09-30T08:06:08.537Z,99.99
2016-09-30T08:07:08.679Z,99.99
2016-09-30T08:08:08.680Z,99.99
2016-09-30T08:09:07.995Z,99.99
2016-09-30T08:10:07.978Z,99.99
2016-09-30T08:11:08.633Z,99.99
2016-09-30T08:12:07.965Z,99.99
2016-09-30T08:13:08.444Z,99.99
2016-09-30T08:14:07.921Z,99.99
2016-09-30T08:15:08.155Z,99.99
2016-09-30T08:16:08.539Z,99.99
2016-09-30T08:17:07.883Z,99.99
2016-09-30T08:18:08.521Z,99.99
2016-09-30T08:19:08.370Z,99.99
2016-09-30T08:20:07.828Z,99.99
2016-09-30T08:21:07.740Z,99.99
2016-09-30T08:22:08.461Z,99.99
2016-09-30T08:23:07.788Z,99.99
2016-09-30T08:24:07.771Z,99.99
2016-09-30T08:25:07.760Z,99.99
2016-09-30T08:26:07.752Z,99.99
2016-09-30T08:27:07.756Z,99.99
2016-09-30T08:28:08.365Z,99.99
2016-09-30T08:29:07.718Z,99.59
2016-09-30T08:30:07.695Z,98.58
2016-09-30T08:31:08.325Z,97.71
2016-09-30T08:32:08.313Z,98.39
2016-09-30T08:33:08.315Z,98.72
2016-09-30T08:34:07.640Z,99.78
2016-09-30T08:35:08.284Z,99.99
2016-09-30T08:36:08.272Z,99.63
2016-09-30T08:37:08.257Z,99.83
2016-09-30T08:38:08.229Z,99.15
2016-09-30T08:39:07.595Z,97.86
2016-09-30T08:40:08.200Z,98.72
2016-09-30T08:41:08.238Z,97.09
2016-09-30T08:42:07.541Z,96.85
2016-09-30T08:43:08.167Z,96.66
2016-09-30T08:44:07.525Z,95.89
2016-09-30T08:45:07.506Z,95.12
2016-09-30T08:46:08.172Z,96.8
2016-09-30T08:47:08.004Z,97.04
2016-09-30T08:48:07.479Z,95.79
2016-09-30T08:49:07.461Z,95.45
2016-09-30T08:50:07.584Z,95.17
2016-09-30T08:51:08.077Z,94.15
2016-09-30T08:52:08.065Z,93.38
2016-09-30T08:53:07.407Z,92.47
2016-09-30T08:54:07.651Z,93.29
2016-09-30T08:55:08.051Z,93.48
2016-09-30T08:56:08.047Z,91.6
2016-09-30T08:57:07.382Z,90.06
2016-09-30T08:58:08.017Z,88.56
2016-09-30T08:59:08.002Z,87.68
2016-09-30T09:00:08.040Z,86.62
2016-09-30T09:01:07.998Z,88.36
2016-09-30T09:02:07.992Z,89.86
2016-09-30T09:03:07.808Z,91.99
2016-09-30T09:04:07.972Z,94.2
2016-09-30T09:05:07.957Z,94.64
2016-09-30T09:06:07.323Z,94.97
2016-09-30T09:07:07.915Z,94.54
2016-09-30T09:08:07.963Z,94.97
2016-09-30T09:09:07.257Z,94.25
2016-09-30T09:10:07.291Z,93.24
2016-09-30T09:11:07.896Z,91.94
2016-09-30T09:12:07.224Z,91.65
2016-09-30T09:13:07.209Z,92.32
2016-09-30T09:14:07.217Z,91.46
2016-09-30T09:15:07.843Z,91.07
2016-09-30T09:16:07.755Z,89.96
2016-09-30T09:17:07.164Z,89.86
2016-09-30T09:18:07.406Z,89.86
2016-09-30T09:19:07.602Z,90.06
2016-09-30T09:20:07.131Z,89.39
2016-09-30T09:21:07.048Z,89.77
2016-09-30T09:22:07.771Z,90.06
2016-09-30T09:23:07.779Z,90.92
2016-09-30T09:24:07.105Z,90.59
2016-09-30T09:25:07.096Z,90.4
2016-09-30T09:26:07.076Z,90.64
2016-09-30T09:27:07.732Z,90.97
2016-09-30T09:28:07.713Z,90.3
2016-09-30T09:29:07.702Z,89.48
2016-09-30T09:30:07.714Z,89.39
2016-09-30T09:31:07.697Z,87.94
2016-09-30T09:32:07.011Z,86.05
2016-09-30T09:33:06.925Z,85.56
2016-09-30T09:34:06.991Z,85.17
2016-09-30T09:35:06.988Z,87.35
2016-09-30T09:36:06.975Z,87.6
2016-09-30T09:37:07.617Z,87.79
2016-09-30T09:38:06.953Z,87.88
2016-09-30T09:39:06.873Z,88.81
2016-09-30T09:40:07.590Z,90.3
2016-09-30T09:41:07.589Z,90.78
2016-09-30T09:42:07.561Z,91.89
2016-09-30T09:43:07.408Z,90.83
2016-09-30T09:44:07.564Z,89.72
2016-09-30T09:45:07.535Z,88.85
2016-09-30T09:46:06.868Z,89.53
2016-09-30T09:47:06.887Z,89.34
2016-09-30T09:48:07.508Z,89.05
2016-09-30T09:49:07.484Z,89.15
2016-09-30T09:50:07.501Z,89.24
2016-09-30T09:51:07.125Z,89.24
2016-09-30T09:52:07.323Z,89.43
2016-09-30T09:53:06.796Z,88.67
2016-09-30T09:54:07.412Z,88.85
2016-09-30T09:55:06.687Z,89.39
2016-09-30T09:56:06.750Z,89.01
2016-09-30T09:57:06.751Z,88.91
2016-09-30T09:58:07.400Z,89.1
2016-09-30T09:59:07.354Z,88.91
2016-09-30T10:00:07.362Z,88.81
2016-09-30T10:01:06.704Z,89.1
2016-09-30T10:02:06.618Z,88.43
2016-09-30T10:03:07.331Z,88.43
2016-09-30T10:04:07.305Z,88.53
2016-09-30T10:05:07.344Z,87.71
2016-09-30T10:06:07.285Z,88.19
2016-09-30T10:07:06.557Z,88.19
2016-09-30T10:08:06.604Z,88.29
2016-09-30T10:09:06.914Z,88.29
2016-09-30T10:10:06.597Z,88.1
2016-09-30T10:11:07.345Z,87.71
2016-09-30T10:12:06.485Z,87.46
2016-09-30T10:13:07.202Z,87.08
2016-09-30T10:14:07.196Z,86.69
2016-09-30T10:15:07.271Z,87.23
2016-09-30T10:16:07.004Z,87.33
2016-09-30T10:17:07.022Z,86.31
2016-09-30T10:18:06.482Z,86.12
2016-09-30T10:19:06.719Z,86.36
2016-09-30T10:20:06.974Z,86.41
2016-09-30T10:21:06.442Z,85.64
2016-09-30T10:22:06.948Z,86.31
2016-09-30T10:23:06.427Z,85.54
2016-09-30T10:24:07.097Z,84.91
2016-09-30T10:25:07.065Z,84.18
2016-09-30T10:26:07.028Z,84.47
2016-09-30T10:27:07.052Z,84.62
2016-09-30T10:28:07.025Z,84.53
2016-09-30T10:29:06.868Z,85.39
2016-09-30T10:30:06.329Z,86.22
2016-09-30T10:31:06.326Z,86.16
2016-09-30T10:32:06.299Z,87.18
2016-09-30T10:33:06.295Z,87.52
2016-09-30T10:34:06.925Z,87.42
2016-09-30T10:35:06.908Z,87.33
2016-09-30T10:36:06.900Z,87.85
2016-09-30T10:37:06.498Z,87.33
2016-09-30T10:38:06.868Z,88.29
2016-09-30T10:39:06.220Z,87.56
2016-09-30T10:40:06.875Z,86.31
2016-09-30T10:41:06.857Z,86.79
2016-09-30T10:42:06.830Z,86.6
2016-09-30T10:43:06.084Z,86.51
2016-09-30T10:44:06.151Z,85.78
2016-09-30T10:45:06.374Z,85
2016-09-30T10:46:06.782Z,84.91
2016-09-30T10:47:06.774Z,84.72
2016-09-30T10:48:06.761Z,85.2
2016-09-30T10:49:06.094Z,86.31
2016-09-30T10:50:06.767Z,86.22
2016-09-30T10:51:06.304Z,85.87
2016-09-30T10:52:06.052Z,85.3
2016-09-30T10:53:06.686Z,85.53
2016-09-30T10:54:06.680Z,86.22
2016-09-30T10:55:06.643Z,86.89
2016-09-30T10:56:06.642Z,86.41
2016-09-30T10:57:06.626Z,86.89
2016-09-30T10:58:06.635Z,87.27
2016-09-30T10:59:06.628Z,87.46
2016-09-30T11:00:05.866Z,87.95
2016-09-30T11:01:06.589Z,88.14
2016-09-30T11:02:05.925Z,88.39
2016-09-30T11:03:06.554Z,87.95
2016-09-30T11:04:06.568Z,87.37
2016-09-30T11:05:05.888Z,87.66
2016-09-30T11:06:06.507Z,87.08
2016-09-30T11:07:06.363Z,87.18
2016-09-30T11:08:05.774Z,86.79
2016-09-30T11:09:05.861Z,86.69
2016-09-30T11:10:06.358Z,86.22
2016-09-30T11:11:05.808Z,86.26
2016-09-30T11:12:06.527Z,85.68
2016-09-30T11:13:05.781Z,85.68
2016-09-30T11:14:06.510Z,85.58
2016-09-30T11:15:06.415Z,84.81
2016-09-30T11:16:06.414Z,84.23
2016-09-30T11:17:06.376Z,83.7
2016-09-30T11:18:06.386Z,83.61
2016-09-30T11:19:05.711Z,83.8
2016-09-30T11:20:05.738Z,83.7
2016-09-30T11:21:06.326Z,84.14
2016-09-30T11:22:06.332Z,84.23
2016-09-30T11:23:06.307Z,84.14
2016-09-30T11:24:05.687Z,84.23
2016-09-30T11:25:05.556Z,84.81
2016-09-30T11:26:06.379Z,84.33
2016-09-30T11:27:06.265Z,84.33
2016-09-30T11:28:06.258Z,84.14
2016-09-30T11:29:06.221Z,83.85
2016-09-30T11:30:06.224Z,83.8
2016-09-30T11:31:06.064Z,83.61
2016-09-30T11:32:06.467Z,83.31
2016-09-30T11:33:06.168Z,83.61
2016-09-30T11:34:05.560Z,83.03
2016-09-30T11:35:05.740Z,81.87
2016-09-30T11:36:06.155Z,81.52
2016-09-30T11:37:06.128Z,80.18
2016-09-30T11:38:05.705Z,79.6
2016-09-30T11:39:05.470Z,79.31
2016-09-30T11:40:06.090Z,79.31
2016-09-30T11:41:05.430Z,78.63
2016-09-30T11:42:05.411Z,77.96
2016-09-30T11:43:06.066Z,79.02
2016-09-30T11:44:05.638Z,78.34
2016-09-30T11:45:06.029Z,77.58
2016-09-30T11:46:05.298Z,78.15
2016-09-30T11:47:05.600Z,78.54
2016-09-30T11:48:05.358Z,78.25
2016-09-30T11:49:05.334Z,77.76
2016-09-30T11:50:05.975Z,77.96
2016-09-30T11:51:05.417Z,77.92
2016-09-30T11:52:05.226Z,78.31
2016-09-30T11:53:05.522Z,78.21
2016-09-30T11:54:05.916Z,78.4
2016-09-30T11:55:05.916Z,78.4
2016-09-30T11:56:05.265Z,78.46
2016-09-30T11:57:05.154Z,78.65
2016-09-30T11:58:05.221Z,78.98
2016-09-30T11:59:05.218Z,78.4
2016-09-30T12:00:05.197Z,78.4
2016-09-30T12:01:05.835Z,78.56
2016-09-30T12:02:05.104Z,79.28
2016-09-30T12:03:05.161Z,79.28
2016-09-30T12:04:05.824Z,79
2016-09-30T12:05:05.073Z,78.52
2016-09-30T12:06:05.795Z,78.46
2016-09-30T12:07:05.777Z,78.46
2016-09-30T12:08:05.767Z,78.85
2016-09-30T12:09:05.727Z,78.02
2016-09-30T12:10:05.074Z,77.73
2016-09-30T12:11:05.056Z,77.25
2016-09-30T12:12:05.697Z,76.86
2016-09-30T12:13:05.038Z,76.96
2016-09-30T12:14:05.018Z,76.57
2016-09-30T12:15:05.658Z,76.61
2016-09-30T12:16:04.915Z,76.76
2016-09-30T12:17:05.638Z,76.57
2016-09-30T12:18:05.636Z,76.18
2016-09-30T12:19:05.078Z,76.03
2016-09-30T12:20:04.868Z,76.09
2016-09-30T12:21:05.589Z,75.84
2016-09-30T12:22:05.246Z,76.13
2016-09-30T12:23:04.925Z,76.13
2016-09-30T12:24:04.893Z,75.65
2016-09-30T12:25:04.885Z,74.97
2016-09-30T12:26:05.125Z,74.62
2016-09-30T12:27:05.517Z,74.62
2016-09-30T12:28:05.498Z,74.62
2016-09-30T12:29:05.506Z,76.48
2016-09-30T12:30:04.838Z,75.61
2016-09-30T12:31:04.743Z,75.45
2016-09-30T12:32:05.443Z,74.49
2016-09-30T12:33:05.435Z,73.31
2016-09-30T12:34:04.772Z,72.28
2016-09-30T12:35:05.451Z,70.52
2016-09-30T12:36:04.747Z,70.14
2016-09-30T12:37:04.740Z,70.04
2016-09-30T12:38:05.400Z,69.74
2016-09-30T12:39:04.644Z,68.98
2016-09-30T12:40:04.621Z,68.49
2016-09-30T12:41:05.399Z,68.24
2016-09-30T12:42:05.357Z,70.75
2016-09-30T12:43:04.670Z,70.29
2016-09-30T12:44:05.309Z,69.26
2016-09-30T12:45:05.384Z,68.24
2016-09-30T12:46:04.643Z,68.27
2016-09-30T12:47:04.546Z,68.33
2016-09-30T12:48:05.261Z,68.46
2016-09-30T12:49:05.255Z,69.4
2016-09-30T12:50:05.246Z,70.32
2016-09-30T12:51:04.586Z,70.84
2016-09-30T12:52:05.224Z,72.34
2016-09-30T12:53:04.495Z,72.25